aviador You're here:

CYPH Decoded Metar

INUKJUAK in QC, CANADA
Report Time2017-08-19 11:00:00
UTC Time2017-08-19 11:14:45
Flight Rules vfr VFR
Wind030° at 06 kt
W.Decomp.*RWY 07: 5.6 kt HW 2.2 kt LCW
W.Rank030° ranks 14
Current wind is below 030° avg. (9.3)
Visibility9999 m
Phenomena:N/A
Clouds:Scattered 140 Hf
Expected CloudBase > 800 ft AGL from Temp-Dew spread
CeilingNone
Temp11°C (ISA -4)
Dew Point09°C (88% RH)
AAT8.6°C
QNH1006 hPa
Density Alt-72 ft
Elevation10 ft
Report Wrong Elevation
Raw Report
CYPH 191100Z AUTO 03006KT 9SM SCT140 11/09 A2970 RMK SLP060=

Extra information for CYPH:More info

Metar Taf Metar & Taf Last 4 Metars F.Rules Stats Wind Profile Meteogram Temp Stats Airport Information Weather charts Add Link Nearby VenuesMetar ALERT Operation Metar Decoded Social comments